sensor_id;sensor_type;location;lat;lon;timestamp;temperature;humidity
35085;SHT85;21267;51.032;6.998;2023-04-01T00:01:38;11.17;82.09
35085;SHT85;21267;51.032;6.998;2023-04-01T00:04:06;11.18;82.09
35085;SHT85;21267;51.032;6.998;2023-04-01T00:06:33;11.22;82.21
35085;SHT85;21267;51.032;6.998;2023-04-01T00:09:00;11.27;82.30
35085;SHT85;21267;51.032;6.998;2023-04-01T00:11:26;11.24;81.96
35085;SHT85;21267;51.032;6.998;2023-04-01T00:13:54;11.18;82.32
35085;SHT85;21267;51.032;6.998;2023-04-01T00:16:21;11.19;81.74
35085;SHT85;21267;51.032;6.998;2023-04-01T00:18:50;11.31;81.29
35085;SHT85;21267;51.032;6.998;2023-04-01T00:21:18;11.27;81.58
35085;SHT85;21267;51.032;6.998;2023-04-01T00:23:50;11.27;81.57
35085;SHT85;21267;51.032;6.998;2023-04-01T00:26:18;11.24;81.62
35085;SHT85;21267;51.032;6.998;2023-04-01T00:28:48;11.28;81.33
35085;SHT85;21267;51.032;6.998;2023-04-01T00:31:15;11.27;81.33
35085;SHT85;21267;51.032;6.998;2023-04-01T00:33:42;11.25;81.32
35085;SHT85;21267;51.032;6.998;2023-04-01T00:36:11;11.18;81.79
35085;SHT85;21267;51.032;6.998;2023-04-01T00:38:41;11.28;81.95
35085;SHT85;21267;51.032;6.998;2023-04-01T00:41:10;11.21;81.80
35085;SHT85;21267;51.032;6.998;2023-04-01T00:43:41;11.28;81.71
35085;SHT85;21267;51.032;6.998;2023-04-01T00:46:08;11.27;81.16
35085;SHT85;21267;51.032;6.998;2023-04-01T00:48:39;11.31;81.44
35085;SHT85;21267;51.032;6.998;2023-04-01T00:51:11;11.34;81.12
35085;SHT85;21267;51.032;6.998;2023-04-01T00:53:44;11.24;81.85
35085;SHT85;21267;51.032;6.998;2023-04-01T00:56:21;11.28;81.68
35085;SHT85;21267;51.032;6.998;2023-04-01T00:58:52;11.31;81.59
35085;SHT85;21267;51.032;6.998;2023-04-01T01:01:22;11.31;81.56
35085;SHT85;21267;51.032;6.998;2023-04-01T01:03:50;11.31;81.61
35085;SHT85;21267;51.032;6.998;2023-04-01T01:06:23;11.31;81.57
35085;SHT85;21267;51.032;6.998;2023-04-01T01:09:00;11.25;81.75
35085;SHT85;21267;51.032;6.998;2023-04-01T01:11:43;11.17;82.08
35085;SHT85;21267;51.032;6.998;2023-04-01T01:14:41;11.19;82.12
35085;SHT85;21267;51.032;6.998;2023-04-01T01:28:44;11.00;83.56
35085;SHT85;21267;51.032;6.998;2023-04-01T01:31:33;11.04;83.31
35085;SHT85;21267;51.032;6.998;2023-04-01T01:34:17;11.06;83.28
35085;SHT85;21267;51.032;6.998;2023-04-01T01:36:48;11.02;83.48
35085;SHT85;21267;51.032;6.998;2023-04-01T01:39:17;11.14;83.00
35085;SHT85;21267;51.032;6.998;2023-04-01T01:41:46;11.12;82.42
35085;SHT85;21267;51.032;6.998;2023-04-01T01:44:16;11.14;82.26
35085;SHT85;21267;51.032;6.998;2023-04-01T01:46:46;11.14;82.38
35085;SHT85;21267;51.032;6.998;2023-04-01T01:49:14;11.11;82.96
35085;SHT85;21267;51.032;6.998;2023-04-01T01:51:41;11.06;83.65
35085;SHT85;21267;51.032;6.998;2023-04-01T01:54:14;10.98;83.81
35085;SHT85;21267;51.032;6.998;2023-04-01T01:56:44;10.87;84.28
35085;SHT85;21267;51.032;6.998;2023-04-01T01:59:12;10.77;85.16
35085;SHT85;21267;51.032;6.998;2023-04-01T02:01:44;10.73;85.56
35085;SHT85;21267;51.032;6.998;2023-04-01T02:04:13;10.71;85.57
35085;SHT85;21267;51.032;6.998;2023-04-01T02:06:46;10.63;85.43
35085;SHT85;21267;51.032;6.998;2023-04-01T02:09:14;10.64;85.72
35085;SHT85;21267;51.032;6.998;2023-04-01T02:11:53;10.48;86.43
35085;SHT85;21267;51.032;6.998;2023-04-01T02:14:28;10.38;86.92
35085;SHT85;21267;51.032;6.998;2023-04-01T02:17:12;10.34;87.29
35085;SHT85;21267;51.032;6.998;2023-04-01T02:22:20;10.28;86.92
35085;SHT85;21267;51.032;6.998;2023-04-01T02:24:49;10.15;87.53
35085;SHT85;21267;51.032;6.998;2023-04-01T02:27:17;10.09;88.00
35085;SHT85;21267;51.032;6.998;2023-04-01T02:29:44;9.95;88.91
35085;SHT85;21267;51.032;6.998;2023-04-01T02:32:12;9.90;88.91
35085;SHT85;21267;51.032;6.998;2023-04-01T02:34:40;9.91;89.23
35085;SHT85;21267;51.032;6.998;2023-04-01T02:37:07;9.88;89.24
35085;SHT85;21267;51.032;6.998;2023-04-01T02:39:34;9.81;90.02
35085;SHT85;21267;51.032;6.998;2023-04-01T02:42:01;9.71;90.56
35085;SHT85;21267;51.032;6.998;2023-04-01T02:44:31;9.70;90.52
35085;SHT85;21267;51.032;6.998;2023-04-01T02:46:58;9.57;91.46
35085;SHT85;21267;51.032;6.998;2023-04-01T02:49:24;9.50;91.63
35085;SHT85;21267;51.032;6.998;2023-04-01T02:51:51;9.53;91.51
35085;SHT85;21267;51.032;6.998;2023-04-01T02:54:18;9.46;91.82
35085;SHT85;21267;51.032;6.998;2023-04-01T02:56:45;9.43;91.94
35085;SHT85;21267;51.032;6.998;2023-04-01T02:59:12;9.47;92.00
35085;SHT85;21267;51.032;6.998;2023-04-01T03:01:39;9.47;91.96
35085;SHT85;21267;51.032;6.998;2023-04-01T03:04:05;9.50;91.65
35085;SHT85;21267;51.032;6.998;2023-04-01T03:06:32;9.47;91.64
35085;SHT85;21267;51.032;6.998;2023-04-01T03:08:59;9.48;91.73
35085;SHT85;21267;51.032;6.998;2023-04-01T03:11:26;9.48;91.73
35085;SHT85;21267;51.032;6.998;2023-04-01T03:13:52;9.54;91.43
35085;SHT85;21267;51.032;6.998;2023-04-01T03:16:19;9.57;91.76
35085;SHT85;21267;51.032;6.998;2023-04-01T03:18:46;9.67;90.95
35085;SHT85;21267;51.032;6.998;2023-04-01T03:21:15;9.57;91.34
35085;SHT85;21267;51.032;6.998;2023-04-01T03:23:42;9.69;90.63
35085;SHT85;21267;51.032;6.998;2023-04-01T03:26:09;9.70;90.88
35085;SHT85;21267;51.032;6.998;2023-04-01T03:28:36;9.70;90.46
35085;SHT85;21267;51.032;6.998;2023-04-01T03:31:03;9.80;90.37
35085;SHT85;21267;51.032;6.998;2023-04-01T03:33:30;9.80;90.14
35085;SHT85;21267;51.032;6.998;2023-04-01T03:35:57;9.88;89.83
35085;SHT85;21267;51.032;6.998;2023-04-01T03:38:24;10.05;88.68
35085;SHT85;21267;51.032;6.998;2023-04-01T03:40:50;10.09;88.60
35085;SHT85;21267;51.032;6.998;2023-04-01T03:43:17;10.01;89.45
35085;SHT85;21267;51.032;6.998;2023-04-01T03:45:49;9.99;89.11
35085;SHT85;21267;51.032;6.998;2023-04-01T03:48:17;9.90;90.12
35085;SHT85;21267;51.032;6.998;2023-04-01T03:50:44;9.99;89.33
35085;SHT85;21267;51.032;6.998;2023-04-01T03:53:11;9.97;89.87
35085;SHT85;21267;51.032;6.998;2023-04-01T03:55:38;10.08;89.73
35085;SHT85;21267;51.032;6.998;2023-04-01T03:58:06;10.01;89.82
35085;SHT85;21267;51.032;6.998;2023-04-01T04:00:33;9.95;90.51
35085;SHT85;21267;51.032;6.998;2023-04-01T04:03:00;9.95;90.44
35085;SHT85;21267;51.032;6.998;2023-04-01T04:05:27;9.94;90.24
35085;SHT85;21267;51.032;6.998;2023-04-01T04:07:54;9.94;90.48
35085;SHT85;21267;51.032;6.998;2023-04-01T04:10:20;9.94;90.38
35085;SHT85;21267;51.032;6.998;2023-04-01T04:12:49;9.98;90.31
35085;SHT85;21267;51.032;6.998;2023-04-01T04:15:16;9.97;90.78
35085;SHT85;21267;51.032;6.998;2023-04-01T04:17:47;10.03;90.60
35085;SHT85;21267;51.032;6.998;2023-04-01T04:20:14;10.06;90.03
35085;SHT85;21267;51.032;6.998;2023-04-01T04:22:41;10.09;89.39
35085;SHT85;21267;51.032;6.998;2023-04-01T04:25:08;9.94;90.56
35085;SHT85;21267;51.032;6.998;2023-04-01T04:27:35;9.97;90.81
35085;SHT85;21267;51.032;6.998;2023-04-01T04:30:02;9.85;91.48
35085;SHT85;21267;51.032;6.998;2023-04-01T04:32:29;9.92;91.38
35085;SHT85;21267;51.032;6.998;2023-04-01T04:34:56;9.91;91.11
35085;SHT85;21267;51.032;6.998;2023-04-01T04:37:23;9.90;91.63
35085;SHT85;21267;51.032;6.998;2023-04-01T04:39:50;9.90;91.13
35085;SHT85;21267;51.032;6.998;2023-04-01T04:42:16;9.92;90.66
35085;SHT85;21267;51.032;6.998;2023-04-01T04:44:43;9.90;90.85
35085;SHT85;21267;51.032;6.998;2023-04-01T04:47:10;9.82;91.48
35085;SHT85;21267;51.032;6.998;2023-04-01T04:49:37;9.80;92.06
35085;SHT85;21267;51.032;6.998;2023-04-01T04:52:04;9.84;91.96
35085;SHT85;21267;51.032;6.998;2023-04-01T04:54:30;9.87;92.28
35085;SHT85;21267;51.032;6.998;2023-04-01T04:56:57;9.82;91.97
35085;SHT85;21267;51.032;6.998;2023-04-01T04:59:24;9.82;92.11
35085;SHT85;21267;51.032;6.998;2023-04-01T05:01:50;9.80;92.41
35085;SHT85;21267;51.032;6.998;2023-04-01T05:04:17;9.80;92.45
35085;SHT85;21267;51.032;6.998;2023-04-01T05:06:44;9.81;92.07
35085;SHT85;21267;51.032;6.998;2023-04-01T05:09:14;9.80;92.50
35085;SHT85;21267;51.032;6.998;2023-04-01T05:11:41;9.75;92.30
35085;SHT85;21267;51.032;6.998;2023-04-01T05:14:15;9.75;92.58
35085;SHT85;21267;51.032;6.998;2023-04-01T05:16:42;9.78;92.47
35085;SHT85;21267;51.032;6.998;2023-04-01T05:19:09;9.78;92.83
35085;SHT85;21267;51.032;6.998;2023-04-01T05:21:35;9.71;92.89
35085;SHT85;21267;51.032;6.998;2023-04-01T05:24:02;9.73;93.19
35085;SHT85;21267;51.032;6.998;2023-04-01T05:26:29;9.69;93.56
35085;SHT85;21267;51.032;6.998;2023-04-01T05:28:55;9.70;93.63
35085;SHT85;21267;51.032;6.998;2023-04-01T05:31:22;9.65;93.86
35085;SHT85;21267;51.032;6.998;2023-04-01T05:33:50;9.70;93.64
35085;SHT85;21267;51.032;6.998;2023-04-01T05:36:17;9.67;93.54
35085;SHT85;21267;51.032;6.998;2023-04-01T05:38:44;9.64;93.64
35085;SHT85;21267;51.032;6.998;2023-04-01T05:41:15;9.65;93.67
35085;SHT85;21267;51.032;6.998;2023-04-01T05:43:42;9.69;93.82
35085;SHT85;21267;51.032;6.998;2023-04-01T05:46:09;9.65;93.77
35085;SHT85;21267;51.032;6.998;2023-04-01T05:48:36;9.67;93.91
35085;SHT85;21267;51.032;6.998;2023-04-01T05:51:04;9.67;94.26
35085;SHT85;21267;51.032;6.998;2023-04-01T05:53:31;9.67;94.56
35085;SHT85;21267;51.032;6.998;2023-04-01T05:56:02;9.65;94.58
35085;SHT85;21267;51.032;6.998;2023-04-01T05:58:29;9.63;94.76
35085;SHT85;21267;51.032;6.998;2023-04-01T06:01:04;9.58;94.59
35085;SHT85;21267;51.032;6.998;2023-04-01T06:03:39;9.60;94.93
35085;SHT85;21267;51.032;6.998;2023-04-01T06:06:16;9.61;95.18
35085;SHT85;21267;51.032;6.998;2023-04-01T06:08:45;9.58;95.24
35085;SHT85;21267;51.032;6.998;2023-04-01T06:11:37;9.55;94.52
35085;SHT85;21267;51.032;6.998;2023-04-01T06:14:19;9.61;94.65
35085;SHT85;21267;51.032;6.998;2023-04-01T06:22:42;9.71;94.12
35085;SHT85;21267;51.032;6.998;2023-04-01T06:25:27;9.69;93.75
35085;SHT85;21267;51.032;6.998;2023-04-01T06:28:40;9.75;93.70
35085;SHT85;21267;51.032;6.998;2023-04-01T06:33:56;9.75;93.96
35085;SHT85;21267;51.032;6.998;2023-04-01T06:37:01;9.81;93.94
35085;SHT85;21267;51.032;6.998;2023-04-01T06:40:18;9.87;93.59
35085;SHT85;21267;51.032;6.998;2023-04-01T06:43:12;9.88;93.66
35085;SHT85;21267;51.032;6.998;2023-04-01T06:46:02;9.92;93.27
35085;SHT85;21267;51.032;6.998;2023-04-01T06:48:47;9.92;93.23
35085;SHT85;21267;51.032;6.998;2023-04-01T06:51:52;9.98;93.02
35085;SHT85;21267;51.032;6.998;2023-04-01T06:54:30;9.98;93.09
35085;SHT85;21267;51.032;6.998;2023-04-01T06:57:20;9.92;92.95
35085;SHT85;21267;51.032;6.998;2023-04-01T06:59:51;9.98;92.70
35085;SHT85;21267;51.032;6.998;2023-04-01T07:02:37;10.02;93.00
35085;SHT85;21267;51.032;6.998;2023-04-01T07:05:20;10.03;92.34
35085;SHT85;21267;51.032;6.998;2023-04-01T07:07:50;10.01;92.31
35085;SHT85;21267;51.032;6.998;2023-04-01T07:10:47;9.97;92.66
35085;SHT85;21267;51.032;6.998;2023-04-01T07:13:21;9.91;93.34
35085;SHT85;21267;51.032;6.998;2023-04-01T07:19:28;9.77;94.38
35085;SHT85;21267;51.032;6.998;2023-04-01T07:22:04;9.75;94.75
35085;SHT85;21267;51.032;6.998;2023-04-01T07:24:34;9.70;94.86
35085;SHT85;21267;51.032;6.998;2023-04-01T07:27:02;9.69;94.86
35085;SHT85;21267;51.032;6.998;2023-04-01T07:29:29;9.67;94.76
35085;SHT85;21267;51.032;6.998;2023-04-01T07:43:26;9.77;95.19
35085;SHT85;21267;51.032;6.998;2023-04-01T07:46:00;9.73;95.56
35085;SHT85;21267;51.032;6.998;2023-04-01T07:51:09;9.77;95.08
35085;SHT85;21267;51.032;6.998;2023-04-01T07:53:45;9.77;95.23
35085;SHT85;21267;51.032;6.998;2023-04-01T08:07:48;9.75;95.03
35085;SHT85;21267;51.032;6.998;2023-04-01T08:16:03;9.88;95.36
35085;SHT85;21267;51.032;6.998;2023-04-01T08:21:42;9.75;94.89
35085;SHT85;21267;51.032;6.998;2023-04-01T08:24:31;9.74;95.19
35085;SHT85;21267;51.032;6.998;2023-04-01T08:27:23;9.77;95.17
35085;SHT85;21267;51.032;6.998;2023-04-01T08:29:59;9.73;95.14
35085;SHT85;21267;51.032;6.998;2023-04-01T08:32:37;9.75;95.19
35085;SHT85;21267;51.032;6.998;2023-04-01T08:35:34;9.75;95.27
35085;SHT85;21267;51.032;6.998;2023-04-01T08:38:26;9.78;95.35
35085;SHT85;21267;51.032;6.998;2023-04-01T08:41:06;9.81;95.58
35085;SHT85;21267;51.032;6.998;2023-04-01T08:43:48;9.81;95.33
35085;SHT85;21267;51.032;6.998;2023-04-01T08:49:35;9.85;95.27
35085;SHT85;21267;51.032;6.998;2023-04-01T08:55:22;9.85;95.23
35085;SHT85;21267;51.032;6.998;2023-04-01T09:00:56;9.88;94.67
35085;SHT85;21267;51.032;6.998;2023-04-01T09:03:37;9.91;94.89
35085;SHT85;21267;51.032;6.998;2023-04-01T09:06:31;9.97;95.09
35085;SHT85;21267;51.032;6.998;2023-04-01T09:09:20;9.97;94.98
35085;SHT85;21267;51.032;6.998;2023-04-01T09:12:27;9.99;94.55
35085;SHT85;21267;51.032;6.998;2023-04-01T09:21:15;10.16;93.72
35085;SHT85;21267;51.032;6.998;2023-04-01T09:24:13;10.15;93.38
35085;SHT85;21267;51.032;6.998;2023-04-01T09:29:53;10.25;93.20
35085;SHT85;21267;51.032;6.998;2023-04-01T09:43:39;10.29;92.79
35085;SHT85;21267;51.032;6.998;2023-04-01T09:49:43;10.28;93.19
35085;SHT85;21267;51.032;6.998;2023-04-01T09:52:22;10.29;93.13
35085;SHT85;21267;51.032;6.998;2023-04-01T09:55:35;10.15;93.03
35085;SHT85;21267;51.032;6.998;2023-04-01T09:58:38;10.15;93.26
35085;SHT85;21267;51.032;6.998;2023-04-01T10:01:50;10.16;93.50
35085;SHT85;21267;51.032;6.998;2023-04-01T10:04:56;10.23;92.95
35085;SHT85;21267;51.032;6.998;2023-04-01T10:08:05;10.26;92.71
35085;SHT85;21267;51.032;6.998;2023-04-01T10:16:34;10.19;93.13
35085;SHT85;21267;51.032;6.998;2023-04-01T10:42:06;10.34;93.69
35085;SHT85;21267;51.032;6.998;2023-04-01T10:44:45;10.32;93.74
35085;SHT85;21267;51.032;6.998;2023-04-01T10:50:21;10.21;93.42
35085;SHT85;21267;51.032;6.998;2023-04-01T11:16:32;10.28;93.68
35085;SHT85;21267;51.032;6.998;2023-04-01T11:21:46;10.32;93.06
35085;SHT85;21267;51.032;6.998;2023-04-01T11:33:22;10.38;92.06
35085;SHT85;21267;51.032;6.998;2023-04-01T11:36:12;10.45;91.80
35085;SHT85;21267;51.032;6.998;2023-04-01T11:41:43;10.52;91.61
35085;SHT85;21267;51.032;6.998;2023-04-01T11:55:23;10.81;91.06
35085;SHT85;21267;51.032;6.998;2023-04-01T12:11:29;11.32;88.92
35085;SHT85;21267;51.032;6.998;2023-04-01T12:20:12;11.38;88.10
35085;SHT85;21267;51.032;6.998;2023-04-01T12:22:49;11.24;87.66
35085;SHT85;21267;51.032;6.998;2023-04-01T12:28:36;11.41;89.26
35085;SHT85;21267;51.032;6.998;2023-04-01T12:31:31;11.49;88.07
35085;SHT85;21267;51.032;6.998;2023-04-01T12:36:46;11.34;88.48
35085;SHT85;21267;51.032;6.998;2023-04-01T12:39:51;11.22;88.29
35085;SHT85;21267;51.032;6.998;2023-04-01T12:42:56;11.21;88.02
35085;SHT85;21267;51.032;6.998;2023-04-01T12:45:34;11.24;88.39
35085;SHT85;21267;51.032;6.998;2023-04-01T12:53:47;11.35;88.02
35085;SHT85;21267;51.032;6.998;2023-04-01T13:05:30;11.24;88.47
35085;SHT85;21267;51.032;6.998;2023-04-01T13:11:16;11.12;88.89
35085;SHT85;21267;51.032;6.998;2023-04-01T13:16:29;11.07;89.53
35085;SHT85;21267;51.032;6.998;2023-04-01T13:19:08;11.06;89.88
35085;SHT85;21267;51.032;6.998;2023-04-01T13:21:56;11.06;89.80
35085;SHT85;21267;51.032;6.998;2023-04-01T13:24:35;11.06;89.68
35085;SHT85;21267;51.032;6.998;2023-04-01T13:27:40;11.06;90.05
35085;SHT85;21267;51.032;6.998;2023-04-01T13:33:14;11.02;90.72
35085;SHT85;21267;51.032;6.998;2023-04-01T13:36:16;11.01;91.39
35085;SHT85;21267;51.032;6.998;2023-04-01T13:41:58;10.85;91.62
35085;SHT85;21267;51.032;6.998;2023-04-01T13:44:38;10.83;92.11
35085;SHT85;21267;51.032;6.998;2023-04-01T13:53:27;10.79;92.75
35085;SHT85;21267;51.032;6.998;2023-04-01T13:56:12;10.81;92.66
35085;SHT85;21267;51.032;6.998;2023-04-01T14:01:29;10.81;92.80
35085;SHT85;21267;51.032;6.998;2023-04-01T14:07:08;10.85;92.82
35085;SHT85;21267;51.032;6.998;2023-04-01T14:20:40;10.85;92.69
35085;SHT85;21267;51.032;6.998;2023-04-01T14:31:37;10.77;92.31
35085;SHT85;21267;51.032;6.998;2023-04-01T14:34:21;10.80;92.60
35085;SHT85;21267;51.032;6.998;2023-04-01T14:36:57;10.74;92.60
35085;SHT85;21267;51.032;6.998;2023-04-01T14:47:58;10.66;93.19
35085;SHT85;21267;51.032;6.998;2023-04-01T14:50:40;10.70;93.24
35085;SHT85;21267;51.032;6.998;2023-04-01T14:56:01;10.61;93.80
35085;SHT85;21267;51.032;6.998;2023-04-01T14:58:50;10.60;94.12
35085;SHT85;21267;51.032;6.998;2023-04-01T15:18:09;10.70;92.59
35085;SHT85;21267;51.032;6.998;2023-04-01T15:29:54;10.64;92.70
35085;SHT85;21267;51.032;6.998;2023-04-01T15:32:43;10.67;92.87
35085;SHT85;21267;51.032;6.998;2023-04-01T15:39:12;10.73;93.12
35085;SHT85;21267;51.032;6.998;2023-04-01T15:43:56;10.77;92.77
35085;SHT85;21267;51.032;6.998;2023-04-01T15:51:45;10.90;91.50
35085;SHT85;21267;51.032;6.998;2023-04-01T15:54:27;10.92;91.90
35085;SHT85;21267;51.032;6.998;2023-04-01T16:00:06;10.84;91.78
35085;SHT85;21267;51.032;6.998;2023-04-01T16:02:51;10.92;91.99
35085;SHT85;21267;51.032;6.998;2023-04-01T16:11:03;10.76;91.11
35085;SHT85;21267;51.032;6.998;2023-04-01T16:13:59;10.83;91.53
35085;SHT85;21267;51.032;6.998;2023-04-01T16:16:41;10.77;91.67
35085;SHT85;21267;51.032;6.998;2023-04-01T16:19:33;10.69;91.77
35085;SHT85;21267;51.032;6.998;2023-04-01T16:22:09;10.70;92.19
35085;SHT85;21267;51.032;6.998;2023-04-01T16:27:27;10.57;92.57
35085;SHT85;21267;51.032;6.998;2023-04-01T16:41:14;10.45;93.56
35085;SHT85;21267;51.032;6.998;2023-04-01T16:43:46;10.45;93.32
35085;SHT85;21267;51.032;6.998;2023-04-01T16:46:34;10.42;93.13
35085;SHT85;21267;51.032;6.998;2023-04-01T16:49:23;10.39;93.82
35085;SHT85;21267;51.032;6.998;2023-04-01T16:54:28;10.38;94.18
35085;SHT85;21267;51.032;6.998;2023-04-01T16:59:57;10.25;94.88
35085;SHT85;21267;51.032;6.998;2023-04-01T17:02:33;10.28;94.67
35085;SHT85;21267;51.032;6.998;2023-04-01T17:05:09;10.25;94.49
35085;SHT85;21267;51.032;6.998;2023-04-01T17:10:11;10.26;94.61
35085;SHT85;21267;51.032;6.998;2023-04-01T17:25:01;10.12;94.92
35085;SHT85;21267;51.032;6.998;2023-04-01T17:30:27;10.13;95.18
35085;SHT85;21267;51.032;6.998;2023-04-01T17:35:43;10.08;95.75
35085;SHT85;21267;51.032;6.998;2023-04-01T17:40:59;10.08;95.67
35085;SHT85;21267;51.032;6.998;2023-04-01T17:43:42;10.03;95.57
35085;SHT85;21267;51.032;6.998;2023-04-01T17:49:02;10.06;95.45
35085;SHT85;21267;51.032;6.998;2023-04-01T17:51:43;10.06;95.40
35085;SHT85;21267;51.032;6.998;2023-04-01T18:01:56;9.95;95.56
35085;SHT85;21267;51.032;6.998;2023-04-01T18:07:59;10.02;96.01
35085;SHT85;21267;51.032;6.998;2023-04-01T18:11:00;9.97;96.10
35085;SHT85;21267;51.032;6.998;2023-04-01T18:13:59;9.95;96.21
35085;SHT85;21267;51.032;6.998;2023-04-01T18:24:36;9.91;95.75
35085;SHT85;21267;51.032;6.998;2023-04-01T18:27:29;9.95;95.57
35085;SHT85;21267;51.032;6.998;2023-04-01T18:30:17;9.91;95.56
35085;SHT85;21267;51.032;6.998;2023-04-01T18:33:09;9.90;95.72
35085;SHT85;21267;51.032;6.998;2023-04-01T18:38:46;9.85;95.78
35085;SHT85;21267;51.032;6.998;2023-04-01T18:41:20;9.87;95.60
35085;SHT85;21267;51.032;6.998;2023-04-01T18:44:03;9.80;95.65
35085;SHT85;21267;51.032;6.998;2023-04-01T18:50:06;9.80;95.37
35085;SHT85;21267;51.032;6.998;2023-04-01T18:52:41;9.70;95.42
35085;SHT85;21267;51.032;6.998;2023-04-01T18:55:40;9.75;95.42
35085;SHT85;21267;51.032;6.998;2023-04-01T18:58:28;9.75;95.83
35085;SHT85;21267;51.032;6.998;2023-04-01T19:04:23;9.69;95.67
35085;SHT85;21267;51.032;6.998;2023-04-01T19:10:07;9.70;95.81
35085;SHT85;21267;51.032;6.998;2023-04-01T19:15:34;9.63;95.65
35085;SHT85;21267;51.032;6.998;2023-04-01T19:21:21;9.65;95.56
35085;SHT85;21267;51.032;6.998;2023-04-01T19:38:02;9.63;95.99
35085;SHT85;21267;51.032;6.998;2023-04-01T19:40:45;9.55;95.89
35085;SHT85;21267;51.032;6.998;2023-04-01T19:46:53;9.53;95.33
35085;SHT85;21267;51.032;6.998;2023-04-01T19:52:10;9.53;95.85
35085;SHT85;21267;51.032;6.998;2023-04-01T19:55:03;9.53;95.88
35085;SHT85;21267;51.032;6.998;2023-04-01T20:00:37;9.48;96.21
35085;SHT85;21267;51.032;6.998;2023-04-01T20:06:27;9.46;96.09
35085;SHT85;21267;51.032;6.998;2023-04-01T20:14:48;9.37;96.12
35085;SHT85;21267;51.032;6.998;2023-04-01T20:17:20;9.39;96.28
35085;SHT85;21267;51.032;6.998;2023-04-01T20:27:53;9.33;96.62
35085;SHT85;21267;51.032;6.998;2023-04-01T20:30:34;9.33;96.64
35085;SHT85;21267;51.032;6.998;2023-04-01T20:36:13;9.27;96.60
35085;SHT85;21267;51.032;6.998;2023-04-01T20:39:10;9.33;96.83
35085;SHT85;21267;51.032;6.998;2023-04-01T20:48:14;9.33;96.74
35085;SHT85;21267;51.032;6.998;2023-04-01T20:50:59;9.33;96.86
35085;SHT85;21267;51.032;6.998;2023-04-01T20:53:50;9.30;96.85
35085;SHT85;21267;51.032;6.998;2023-04-01T20:56:29;9.33;96.83
35085;SHT85;21267;51.032;6.998;2023-04-01T20:59:24;9.30;96.95
35085;SHT85;21267;51.032;6.998;2023-04-01T21:07:54;9.37;97.05
35085;SHT85;21267;51.032;6.998;2023-04-01T21:10:43;9.26;97.03
35085;SHT85;21267;51.032;6.998;2023-04-01T21:13:32;9.30;97.07
35085;SHT85;21267;51.032;6.998;2023-04-01T21:16:54;9.26;97.03
35085;SHT85;21267;51.032;6.998;2023-04-01T21:22:19;9.32;96.82
35085;SHT85;21267;51.032;6.998;2023-04-01T21:27:36;9.29;97.12
35085;SHT85;21267;51.032;6.998;2023-04-01T21:50:05;9.39;96.92
35085;SHT85;21267;51.032;6.998;2023-04-01T22:07:22;9.33;97.21
35085;SHT85;21267;51.032;6.998;2023-04-01T22:11:00;9.39;97.13
35085;SHT85;21267;51.032;6.998;2023-04-01T22:15:46;9.43;97.12
35085;SHT85;21267;51.032;6.998;2023-04-01T22:21:22;9.41;97.16
35085;SHT85;21267;51.032;6.998;2023-04-01T22:24:16;9.41;97.21
35085;SHT85;21267;51.032;6.998;2023-04-01T22:27:03;9.40;97.25
35085;SHT85;21267;51.032;6.998;2023-04-01T22:29:40;9.37;97.44
35085;SHT85;21267;51.032;6.998;2023-04-01T22:32:17;9.39;97.58
35085;SHT85;21267;51.032;6.998;2023-04-01T22:34:57;9.34;97.62
35085;SHT85;21267;51.032;6.998;2023-04-01T22:43:05;9.37;97.71
35085;SHT85;21267;51.032;6.998;2023-04-01T22:48:56;9.30;97.90
35085;SHT85;21267;51.032;6.998;2023-04-01T22:54:31;9.27;98.06
35085;SHT85;21267;51.032;6.998;2023-04-01T23:00:06;9.26;98.29
35085;SHT85;21267;51.032;6.998;2023-04-01T23:02:43;9.24;98.31
35085;SHT85;21267;51.032;6.998;2023-04-01T23:05:17;9.24;98.33
35085;SHT85;21267;51.032;6.998;2023-04-01T23:07:54;9.29;98.42
35085;SHT85;21267;51.032;6.998;2023-04-01T23:10:30;9.23;98.43
35085;SHT85;21267;51.032;6.998;2023-04-01T23:13:28;9.19;98.57
35085;SHT85;21267;51.032;6.998;2023-04-01T23:16:10;9.23;98.61
35085;SHT85;21267;51.032;6.998;2023-04-01T23:19:22;9.20;98.62
35085;SHT85;21267;51.032;6.998;2023-04-01T23:22:15;9.20;98.92
35085;SHT85;21267;51.032;6.998;2023-04-01T23:27:40;9.20;99.20
35085;SHT85;21267;51.032;6.998;2023-04-01T23:30:55;9.26;99.17
35085;SHT85;21267;51.032;6.998;2023-04-01T23:36:14;9.22;99.13
35085;SHT85;21267;51.032;6.998;2023-04-01T23:38:55;9.22;99.20
35085;SHT85;21267;51.032;6.998;2023-04-01T23:41:26;9.23;99.28
35085;SHT85;21267;51.032;6.998;2023-04-01T23:44:11;9.23;99.23
35085;SHT85;21267;51.032;6.998;2023-04-01T23:46:40;9.22;99.23
35085;SHT85;21267;51.032;6.998;2023-04-01T23:49:41;9.24;99.20
35085;SHT85;21267;51.032;6.998;2023-04-01T23:52:14;9.30;99.19
35085;SHT85;21267;51.032;6.998;2023-04-01T23:54:54;9.30;99.15
